createdAt,value
2019-05-19T00:01:20.953Z,138161.44
2019-05-19T00:03:53.434Z,138145.31
2019-05-19T00:06:24.743Z,138026.45
2019-05-19T00:08:56.555Z,138080.63
2019-05-19T00:11:28.196Z,138274.52
2019-05-19T00:14:00.360Z,138106.03
2019-05-19T00:16:31.637Z,138008.30
2019-05-19T00:19:02.869Z,137792.09
2019-05-19T00:21:34.187Z,137390.70
2019-05-19T00:24:06.136Z,137181.05
2019-05-19T00:26:38.930Z,136719.39
2019-05-19T00:29:10.443Z,136598.22
2019-05-19T00:31:44.742Z,136526.19
2019-05-19T00:34:19.280Z,136536.89
2019-05-19T00:36:54.198Z,136333.52
2019-05-19T00:39:25.991Z,135980.00
2019-05-19T00:41:57.815Z,135956.78
2019-05-19T00:44:29.045Z,135435.41
2019-05-19T00:47:00.522Z,135246.69
2019-05-19T00:49:40.911Z,134822.55
2019-05-19T00:52:05.770Z,134985.11
2019-05-19T00:54:37.640Z,134751.02
2019-05-19T00:57:09.528Z,134761.69
2019-05-19T00:59:42.118Z,134724.20
2019-05-19T01:02:14.214Z,134600.12
2019-05-19T01:04:46.233Z,134810.52
2019-05-19T01:07:21.333Z,134755.84
2019-05-19T01:09:54.266Z,134793.11
2019-05-19T01:12:26.303Z,134799.88
2019-05-19T01:14:58.269Z,134835.69
2019-05-19T01:17:35.825Z,134606.84
2019-05-19T01:20:07.746Z,134810.17
2019-05-19T01:22:39.020Z,133662.59
2019-05-19T01:25:10.755Z,134178.06
2019-05-19T01:27:42.478Z,134095.36
2019-05-19T01:30:14.577Z,133693.70
2019-05-19T01:32:45.918Z,133807.14
2019-05-19T01:35:17.609Z,133709.55
2019-05-19T01:37:49.962Z,131539.34
2019-05-19T01:40:21.524Z,132601.44
2019-05-19T01:42:53.189Z,141363.88
2019-05-19T01:45:25.608Z,141426.44
2019-05-19T01:47:56.952Z,142461.00
2019-05-19T01:50:30.773Z,144135.47
2019-05-19T01:53:02.061Z,140097.03
2019-05-19T01:55:34.156Z,140683.89
2019-05-19T01:58:05.497Z,139232.25
2019-05-19T02:00:36.834Z,137811.41
2019-05-19T02:03:08.173Z,137548.91
2019-05-19T02:05:39.466Z,136056.27
2019-05-19T02:08:10.690Z,136578.56
2019-05-19T02:10:42.058Z,135918.64
2019-05-19T02:13:13.378Z,131839.91
2019-05-19T02:15:44.698Z,132198.64
2019-05-19T02:18:15.896Z,132201.92
2019-05-19T02:20:47.231Z,133232.48
2019-05-19T02:23:18.919Z,138175.88
2019-05-19T02:25:50.522Z,137944.14
2019-05-19T02:28:22.849Z,137328.98
2019-05-19T02:30:54.517Z,137801.97
2019-05-19T02:33:25.829Z,136348.38
2019-05-19T02:35:57.044Z,136092.81
2019-05-19T02:38:28.331Z,136111.09
2019-05-19T02:41:00.905Z,135782.56
2019-05-19T02:43:33.524Z,134609.78
2019-05-19T02:46:06.428Z,134472.53
2019-05-19T02:48:39.311Z,131091.14
2019-05-19T02:51:12.454Z,132506.50
2019-05-19T02:53:45.640Z,133538.86
2019-05-19T02:56:17.232Z,134100.41
2019-05-19T02:58:49.127Z,133932.53
2019-05-19T03:01:20.664Z,133966.81
2019-05-19T03:03:51.850Z,135869.66
2019-05-19T03:06:23.711Z,135772.72
2019-05-19T03:08:54.996Z,135958.84
2019-05-19T03:11:26.622Z,136189.31
2019-05-19T03:13:58.962Z,136358.98
2019-05-19T03:16:30.308Z,134843.53
2019-05-19T03:19:01.586Z,130605.92
2019-05-19T03:21:32.862Z,132612.34
2019-05-19T03:24:05.707Z,131283.66
2019-05-19T03:26:37.219Z,137963.17
2019-05-19T03:29:10.000Z,138434.42
2019-05-19T03:31:48.009Z,139557.67
2019-05-19T03:34:19.748Z,138067.13
2019-05-19T03:36:51.599Z,139873.19
2019-05-19T03:39:24.080Z,138854.41
2019-05-19T03:41:55.354Z,138108.36
2019-05-19T03:44:27.129Z,138321.33
2019-05-19T03:46:58.663Z,139717.05
2019-05-19T03:49:29.916Z,140301.86
2019-05-19T03:52:01.388Z,140395.91
2019-05-19T03:54:32.953Z,141041.34
2019-05-19T03:57:04.210Z,138142.42
2019-05-19T03:59:35.505Z,139574.50
2019-05-19T04:02:06.727Z,139461.17
2019-05-19T04:04:38.225Z,138707.39
2019-05-19T04:07:12.090Z,139130.94
2019-05-19T04:09:43.874Z,139374.69
2019-05-19T04:12:15.138Z,139220.59
2019-05-19T04:14:47.538Z,137131.69
2019-05-19T04:17:19.185Z,137432.61
2019-05-19T04:19:50.848Z,138204.97
2019-05-19T04:22:22.079Z,139520.75
2019-05-19T04:24:56.125Z,133726.00
2019-05-19T04:27:27.384Z,136669.25
2019-05-19T04:30:00.264Z,136020.08
2019-05-19T04:32:31.587Z,135967.22
2019-05-19T04:35:02.872Z,136126.22
2019-05-19T04:37:34.183Z,136027.45
2019-05-19T04:40:06.895Z,134613.19
2019-05-19T04:42:38.274Z,135231.55
2019-05-19T04:45:09.667Z,135573.09
2019-05-19T04:47:41.003Z,137637.69
2019-05-19T04:50:12.297Z,138900.06
2019-05-19T04:52:44.531Z,134457.69
2019-05-19T04:55:16.929Z,135757.19
2019-05-19T04:57:49.291Z,135962.20
2019-05-19T05:00:20.686Z,135177.25
2019-05-19T05:02:52.302Z,135865.77
2019-05-19T05:05:23.643Z,135153.73
2019-05-19T05:07:55.586Z,135564.34
2019-05-19T05:10:27.096Z,134829.69
2019-05-19T05:12:59.958Z,131633.23
2019-05-19T05:15:31.473Z,132652.25
2019-05-19T05:18:02.773Z,133291.88
2019-05-19T05:20:34.127Z,132719.06
2019-05-19T05:23:05.443Z,131606.30
2019-05-19T05:25:36.723Z,130942.09
2019-05-19T05:28:08.217Z,131009.44
2019-05-19T05:30:39.345Z,130467.88
2019-05-19T05:33:10.592Z,129276.63
2019-05-19T05:35:41.843Z,128590.26
2019-05-19T05:38:13.361Z,125488.06
2019-05-19T05:40:44.652Z,125152.02
2019-05-19T05:43:15.853Z,123949.81
2019-05-19T05:45:47.202Z,122861.41
2019-05-19T05:51:07.598Z,121014.39
2019-05-19T05:53:38.810Z,119369.02
2019-05-19T05:56:10.158Z,118900.66
2019-05-19T05:58:41.939Z,117074.55
2019-05-19T06:01:13.679Z,116632.22
2019-05-19T06:03:44.986Z,116780.72
2019-05-19T06:06:17.837Z,116080.90
2019-05-19T06:08:49.135Z,115942.82
2019-05-19T06:11:21.385Z,116117.65
2019-05-19T06:13:52.737Z,116291.45
2019-05-19T06:16:24.110Z,115727.38
2019-05-19T06:18:56.857Z,116549.86
2019-05-19T06:21:28.336Z,117130.30
2019-05-19T06:23:59.639Z,117035.56
2019-05-19T06:26:31.794Z,117235.28
2019-05-19T06:29:03.179Z,118005.22
2019-05-19T06:31:34.428Z,117149.11
2019-05-19T06:34:06.768Z,116911.42
2019-05-19T06:36:38.116Z,116353.53
2019-05-19T06:39:09.468Z,115623.05
2019-05-19T06:41:40.841Z,114693.91
2019-05-19T06:44:11.957Z,113912.10
2019-05-19T06:46:43.343Z,113725.72
2019-05-19T06:49:14.722Z,113172.38
2019-05-19T06:51:46.364Z,112451.30
2019-05-19T06:54:19.709Z,111748.96
2019-05-19T06:56:51.018Z,109787.12
2019-05-19T06:59:22.365Z,109202.02
2019-05-19T07:01:53.742Z,108470.63
2019-05-19T07:04:25.078Z,107919.52
2019-05-19T07:06:56.496Z,107597.58
2019-05-19T07:09:29.280Z,107589.58
2019-05-19T07:12:00.645Z,107521.16
2019-05-19T07:14:32.079Z,106879.36
2019-05-19T07:17:03.374Z,106669.02
2019-05-19T07:19:34.763Z,105612.50
2019-05-19T07:22:06.003Z,105047.38
2019-05-19T07:24:37.173Z,104533.81
2019-05-19T07:27:08.459Z,104072.35
2019-05-19T07:29:40.275Z,103754.86
2019-05-19T07:34:25.740Z,102914.03
2019-05-19T07:36:57.179Z,102665.39
2019-05-19T07:39:28.580Z,102517.45
2019-05-19T07:41:59.906Z,102255.39
2019-05-19T07:44:31.327Z,102162.27
2019-05-19T07:47:02.695Z,102515.42
2019-05-19T07:49:35.151Z,102412.26
2019-05-19T07:52:06.431Z,102291.30
2019-05-19T07:54:37.983Z,102127.05
2019-05-19T07:57:10.456Z,102029.24
2019-05-19T07:59:41.999Z,102007.92
2019-05-19T08:02:13.352Z,101954.56
2019-05-19T08:04:44.498Z,101844.75
2019-05-19T08:07:15.777Z,101714.13
2019-05-19T08:09:49.644Z,101656.36
2019-05-19T08:12:21.600Z,101504.97
2019-05-19T08:14:53.044Z,101456.45
2019-05-19T08:17:26.027Z,101258.93
2019-05-19T08:19:57.552Z,101131.11
2019-05-19T08:22:30.177Z,101022.99
2019-05-19T08:25:01.425Z,100948.94
2019-05-19T08:27:34.826Z,100863.30
2019-05-19T08:30:08.709Z,100814.51
2019-05-19T08:32:41.612Z,100733.97
2019-05-19T08:35:14.749Z,100683.70
2019-05-19T08:37:46.127Z,100637.83
2019-05-19T08:40:17.700Z,100488.88
2019-05-19T08:42:49.273Z,100430.91
2019-05-19T08:45:20.848Z,100342.88
2019-05-19T08:47:52.159Z,100297.05
2019-05-19T08:50:23.400Z,100189.73
2019-05-19T08:52:54.998Z,100140.78
2019-05-19T08:55:26.355Z,100120.74
2019-05-19T08:57:57.741Z,100068.78
2019-05-19T09:00:28.869Z,100005.23
2019-05-19T09:03:00.439Z,99982.30
2019-05-19T09:05:31.945Z,99908.11
2019-05-19T09:08:03.505Z,99827.59
2019-05-19T09:10:34.943Z,99801.66
2019-05-19T09:13:13.385Z,99718.75
2019-05-19T09:15:44.696Z,99650.69
2019-05-19T09:18:19.149Z,99604.55
2019-05-19T09:20:50.356Z,99549.64
2019-05-19T09:23:22.323Z,99496.13
2019-05-19T09:25:53.571Z,99450.09
2019-05-19T09:28:25.795Z,99399.78
2019-05-19T09:30:58.126Z,99355.18
2019-05-19T09:33:29.386Z,99291.84
2019-05-19T09:36:00.639Z,99273.02
2019-05-19T09:38:32.273Z,99240.20
2019-05-19T09:41:03.651Z,99234.86
2019-05-19T09:43:36.119Z,99215.58
2019-05-19T09:46:07.972Z,99208.30
2019-05-19T09:48:41.677Z,99178.29
2019-05-19T09:51:13.670Z,99125.62
2019-05-19T09:53:50.386Z,99099.22
2019-05-19T09:56:22.303Z,99091.19
2019-05-19T09:58:53.804Z,99081.73
2019-05-19T10:01:30.968Z,99088.32
2019-05-19T10:04:06.987Z,99130.83
2019-05-19T10:06:38.330Z,99171.96
2019-05-19T10:09:21.338Z,99229.72
2019-05-19T10:12:06.516Z,99272.45
2019-05-19T10:14:39.970Z,99311.24
2019-05-19T10:17:11.468Z,99328.95
2019-05-19T10:19:45.828Z,99397.66
2019-05-19T10:22:17.239Z,99395.55
2019-05-19T10:25:03.881Z,99390.23
2019-05-19T10:27:22.650Z,99389.39
2019-05-19T10:29:55.477Z,99394.86
2019-05-19T10:32:27.922Z,99376.33
2019-05-19T10:35:02.338Z,99376.86
2019-05-19T10:37:34.343Z,99364.80
2019-05-19T10:40:06.545Z,99371.78
2019-05-19T10:42:38.094Z,99371.40
2019-05-19T10:45:10.087Z,99345.55
2019-05-19T10:47:41.558Z,99327.12
2019-05-19T10:50:13.908Z,99329.45
2019-05-19T10:52:47.518Z,99330.86
2019-05-19T10:55:35.659Z,99305.06
2019-05-19T10:57:58.022Z,99304.55
2019-05-19T11:00:31.251Z,99289.73
2019-05-19T11:03:24.627Z,99268.00
2019-05-19T11:05:56.350Z,99239.69
2019-05-19T11:08:30.861Z,99215.85
2019-05-19T11:11:02.534Z,99201.45
2019-05-19T11:13:35.279Z,99189.84
2019-05-19T11:16:12.624Z,99179.43
2019-05-19T11:18:44.230Z,99151.98
2019-05-19T11:21:20.495Z,99134.08
2019-05-19T11:23:52.232Z,99121.30
2019-05-19T11:26:24.004Z,99100.53
2019-05-19T11:28:55.938Z,99083.41
2019-05-19T11:31:29.201Z,99073.64
2019-05-19T11:34:04.159Z,99057.66
2019-05-19T11:36:36.088Z,99053.56
2019-05-19T11:39:18.593Z,99051.27
2019-05-19T11:41:50.318Z,99033.59
2019-05-19T11:44:25.411Z,99019.91
2019-05-19T11:46:58.544Z,99015.62
2019-05-19T11:49:30.131Z,99015.92
2019-05-19T11:52:02.709Z,99003.13
2019-05-19T11:54:34.099Z,99009.55
2019-05-19T11:57:08.739Z,98999.22
2019-05-19T11:59:40.438Z,98998.45
2019-05-19T12:02:12.613Z,98991.77
2019-05-19T13:26:21.863Z,98963.44
2019-05-19T13:28:56.935Z,98985.90
2019-05-19T13:31:28.627Z,98983.66
2019-05-19T13:34:00.225Z,98993.27
2019-05-19T13:36:32.664Z,98983.32
2019-05-19T13:39:05.353Z,99003.95
2019-05-19T13:41:36.749Z,98994.34
2019-05-19T13:44:08.606Z,99000.95
2019-05-19T13:46:44.638Z,99003.05
2019-05-19T13:49:16.286Z,98999.91
2019-05-19T13:51:47.852Z,98992.72
2019-05-19T13:54:44.407Z,98998.57
2019-05-19T13:57:16.261Z,98995.73
2019-05-19T14:00:04.087Z,98994.49
2019-05-19T14:02:39.687Z,98994.24
2019-05-19T14:05:13.696Z,98994.51
2019-05-19T14:07:45.879Z,98995.81
2019-05-19T14:10:18.647Z,98977.94
2019-05-19T14:12:51.638Z,98976.53
2019-05-19T14:15:23.465Z,98961.23
2019-05-19T14:17:55.071Z,98948.96
2019-05-19T14:20:30.041Z,98936.08
2019-05-19T14:23:01.559Z,98931.52
2019-05-19T14:25:33.489Z,98923.80
2019-05-19T14:28:05.150Z,98917.28
2019-05-19T14:30:36.947Z,98908.34
2019-05-19T14:33:08.284Z,98899.38
2019-05-19T14:35:39.774Z,98909.36
2019-05-19T14:38:20.856Z,98918.08
2019-05-19T14:40:52.169Z,98899.19
2019-05-19T14:43:27.295Z,98893.37
2019-05-19T14:46:03.230Z,98888.98
2019-05-19T14:48:34.633Z,98896.60
2019-05-19T14:51:07.367Z,98882.41
2019-05-19T14:53:38.750Z,98872.60
2019-05-19T14:56:10.110Z,98878.27
2019-05-19T14:58:42.877Z,98871.12
2019-05-19T15:01:14.276Z,98879.17
2019-05-19T15:03:50.263Z,98875.59
2019-05-19T15:06:21.547Z,98880.66
2019-05-19T15:08:52.855Z,98874.66
2019-05-19T15:11:24.057Z,98887.51
2019-05-19T15:13:56.368Z,98887.74
2019-05-19T15:16:27.995Z,98872.37
2019-05-19T15:18:59.805Z,98880.73
2019-05-19T15:21:32.026Z,98898.83
2019-05-19T15:24:03.882Z,98894.13
2019-05-19T15:26:35.566Z,98888.22
2019-05-19T15:29:06.992Z,98875.44
2019-05-19T15:31:38.646Z,98882.13
2019-05-19T15:34:11.589Z,98870.80
2019-05-19T15:36:42.838Z,98858.39
2019-05-19T15:39:14.723Z,98856.29
2019-05-19T15:41:47.230Z,98849.45
2019-05-19T15:44:19.477Z,98850.06
2019-05-19T15:46:51.477Z,98853.77
2019-05-19T15:49:23.606Z,98854.47
2019-05-19T15:52:02.694Z,98828.80
2019-05-19T15:54:29.864Z,98817.67
2019-05-19T15:57:01.816Z,98802.25
2019-05-19T15:59:45.450Z,98799.28
2019-05-19T16:05:12.594Z,98783.64
2019-05-19T16:07:49.550Z,98790.27
2019-05-19T16:10:24.396Z,98801.03
2019-05-19T16:12:57.632Z,98780.75
2019-05-19T16:15:31.394Z,98778.05
2019-05-19T16:18:03.950Z,98781.27
2019-05-19T16:20:36.906Z,98758.63
2019-05-19T16:23:29.643Z,98732.52
2019-05-19T16:26:05.106Z,98712.52
2019-05-19T16:28:38.859Z,98696.94
2019-05-19T16:31:31.996Z,98672.64
2019-05-19T16:34:03.477Z,98655.88
2019-05-19T16:36:37.049Z,98638.34
2019-05-19T16:39:10.980Z,98626.30
2019-05-19T16:41:54.320Z,98581.33
2019-05-19T16:44:26.474Z,98539.59
2019-05-19T16:47:00.129Z,98474.51
2019-05-19T16:49:37.143Z,98461.33
2019-05-19T16:52:50.448Z,98427.19
2019-05-19T16:55:29.906Z,98392.55
2019-05-19T16:58:02.440Z,98356.73
2019-05-19T17:00:36.272Z,98343.21
2019-05-19T17:03:08.498Z,98304.83
2019-05-19T17:05:50.841Z,98266.97
2019-05-19T17:08:22.908Z,98220.62
2019-05-19T17:11:00.545Z,98181.77
2019-05-19T17:13:32.319Z,98147.80
2019-05-19T17:16:05.797Z,98141.19
2019-05-19T17:18:37.417Z,98069.57
2019-05-19T17:21:09.391Z,98021.87
2019-05-19T17:24:03.384Z,97975.06
2019-05-19T17:26:36.548Z,97923.31
2019-05-19T17:29:08.340Z,97860.22
2019-05-19T17:31:39.874Z,97778.13
2019-05-19T17:34:11.931Z,97563.31
2019-05-19T17:36:44.146Z,97534.53
2019-05-19T17:39:15.907Z,97518.78
2019-05-19T17:41:52.919Z,97473.27
2019-05-19T17:44:25.945Z,97454.50
2019-05-19T17:47:05.445Z,97381.17
2019-05-19T17:49:44.276Z,97310.95
2019-05-19T17:52:50.734Z,97300.52
2019-05-19T17:55:33.426Z,97216.18
2019-05-19T17:58:05.837Z,97111.98
2019-05-19T18:00:40.655Z,97051.27
2019-05-19T18:03:12.861Z,96900.53
2019-05-19T18:05:44.722Z,96565.80
2019-05-19T18:08:16.868Z,96520.13
2019-05-19T18:10:48.427Z,96497.89
2019-05-19T18:13:19.812Z,95954.63
2019-05-19T18:15:51.201Z,96026.26
2019-05-19T18:18:22.709Z,96087.22
2019-05-19T18:20:58.118Z,96057.92
2019-05-19T18:23:30.270Z,96265.48
2019-05-19T18:26:01.715Z,96360.30
2019-05-19T18:28:33.576Z,96487.80
2019-05-19T18:31:05.053Z,97864.69
2019-05-19T18:36:25.190Z,97859.66
2019-05-19T18:38:57.294Z,97831.81
2019-05-19T18:41:28.985Z,98008.34
2019-05-19T18:44:00.499Z,98338.91
2019-05-19T18:46:31.971Z,98413.13
2019-05-19T18:49:03.296Z,98459.17
2019-05-19T18:51:34.669Z,98499.99
2019-05-19T18:54:06.254Z,98506.34
2019-05-19T18:56:37.891Z,98516.30
2019-05-19T18:59:10.197Z,98527.89
2019-05-19T19:01:41.816Z,98539.48
2019-05-19T19:04:13.382Z,98553.31
2019-05-19T19:06:44.816Z,98566.16
2019-05-19T19:09:16.266Z,98592.31
2019-05-19T19:11:48.634Z,98619.25
2019-05-19T19:14:20.745Z,98628.37
2019-05-19T19:16:52.708Z,98650.94
2019-05-19T19:19:25.986Z,98676.09
2019-05-19T19:21:58.270Z,98700.24
2019-05-19T19:24:30.129Z,98733.39
2019-05-19T19:27:01.697Z,98763.24
2019-05-19T19:29:33.635Z,98797.93
2019-05-19T19:32:05.240Z,98830.57
2019-05-19T19:34:37.814Z,98825.96
2019-05-19T19:37:09.572Z,98916.34
2019-05-19T19:39:41.059Z,98951.72
2019-05-19T19:42:14.012Z,98989.53
2019-05-19T19:44:45.539Z,99041.50
2019-05-19T19:47:17.013Z,99068.91
2019-05-19T19:49:50.651Z,99131.30
2019-05-19T19:52:24.636Z,99161.11
2019-05-19T19:54:57.993Z,99197.05
2019-05-19T19:57:29.946Z,99248.86
2019-05-19T20:00:02.363Z,99256.66
2019-05-19T20:02:34.931Z,99291.51
2019-05-19T20:05:06.614Z,99326.14
2019-05-19T20:07:38.522Z,99379.34
2019-05-19T20:10:10.139Z,99442.44
2019-05-19T20:12:41.764Z,99618.00
2019-05-19T20:15:17.348Z,99766.25
2019-05-19T20:17:51.396Z,99836.55
2019-05-19T20:20:26.435Z,99886.52
2019-05-19T20:22:58.223Z,99987.11
2019-05-19T20:25:31.324Z,100248.69
2019-05-19T20:28:03.770Z,100441.08
2019-05-19T20:30:36.748Z,100589.52
2019-05-19T20:33:09.421Z,100713.92
2019-05-19T20:38:54.533Z,101067.91
2019-05-19T20:41:27.433Z,101231.42
2019-05-19T20:43:59.393Z,101372.29
2019-05-19T20:46:36.542Z,101509.52
2019-05-19T20:49:15.130Z,101641.59
2019-05-19T20:54:23.079Z,101908.88
2019-05-19T22:34:46.268Z,144818.27
2019-05-19T22:37:17.775Z,145647.61
2019-05-19T22:39:49.036Z,147905.50
2019-05-19T22:42:20.619Z,148528.02
2019-05-19T22:44:52.068Z,148948.25
2019-05-19T22:48:09.384Z,144741.80
2019-05-19T22:50:41.404Z,150022.44
2019-05-19T22:53:12.843Z,149957.28
2019-05-19T22:55:44.641Z,149986.31
2019-05-19T22:58:16.301Z,149947.00
2019-05-19T23:00:47.611Z,149784.23
2019-05-19T23:03:21.064Z,149741.23
2019-05-19T23:05:55.363Z,149765.34
2019-05-19T23:08:28.949Z,149743.53
2019-05-19T23:11:00.434Z,149758.75
2019-05-19T23:13:31.753Z,149627.27
2019-05-19T23:16:03.918Z,149517.94
2019-05-19T23:18:35.231Z,149439.47
2019-05-19T23:21:06.677Z,149489.00
2019-05-19T23:23:38.239Z,149397.72
2019-05-19T23:26:09.645Z,149384.81
2019-05-19T23:28:41.417Z,150574.14
2019-05-19T23:31:12.929Z,150669.53
2019-05-19T23:33:44.275Z,149578.66
2019-05-19T23:36:15.874Z,149654.94
2019-05-19T23:38:47.593Z,149689.55
2019-05-19T23:41:19.044Z,149873.42
2019-05-19T23:43:50.317Z,149829.09
2019-05-19T23:46:21.613Z,149994.38
2019-05-19T23:48:52.962Z,150091.41
2019-05-19T23:51:24.209Z,147415.91
2019-05-19T23:53:55.585Z,148665.00
2019-05-19T23:56:27.098Z,149984.58
2019-05-19T23:59:01.395Z,148225.53
